Alma, Illinois
Current Conditions -  °F | °C
As of 7:55 PM on Saturday 22 Nov 2014 (Local Time) from KENL Reporting Station
Light Rain Light Rain  
Wind Chill: 11°   Ceiling: 9000
Heat Index: 11°   Visibility: 10mi
Dew Point:   Wind: 6mph
Humidity: 76%   Direction: 160°SSE
Pressure: 29.97"   Gusts: NA
Location:  38.72°N, 88.91°W
Report Text: KENL 230155Z AUTO 16005KT 10SM -RA SCT070 OVC090 11/07 A2997 RMK AO2 T01110071
Loading
Personal Weather Stations






























Interactive Weather Map New forecast layout! Learn more

10-Day Weather Forecast

Advertisements
Track Severe Weather on mobile